sensor_id;sensor_type;location;lat;lon;timestamp;temperature;humidity
26541;DHT22;14206;50.202;10.948;2023-02-07T00:01:28;-1.10;94.60
26541;DHT22;14206;50.202;10.948;2023-02-07T00:03:55;-1.10;94.80
26541;DHT22;14206;50.202;10.948;2023-02-07T00:06:29;-1.20;94.80
26541;DHT22;14206;50.202;10.948;2023-02-07T00:09:01;-1.20;94.70
26541;DHT22;14206;50.202;10.948;2023-02-07T00:11:28;-1.20;94.80
26541;DHT22;14206;50.202;10.948;2023-02-07T00:13:58;-1.20;94.50
26541;DHT22;14206;50.202;10.948;2023-02-07T00:16:25;-1.20;94.50
26541;DHT22;14206;50.202;10.948;2023-02-07T00:18:53;-1.20;94.40
26541;DHT22;14206;50.202;10.948;2023-02-07T00:21:22;-1.30;94.10
26541;DHT22;14206;50.202;10.948;2023-02-07T00:23:49;-1.30;94.30
26541;DHT22;14206;50.202;10.948;2023-02-07T00:26:18;-1.40;94.00
26541;DHT22;14206;50.202;10.948;2023-02-07T00:28:47;-1.40;93.80
26541;DHT22;14206;50.202;10.948;2023-02-07T00:31:30;-1.40;93.60
26541;DHT22;14206;50.202;10.948;2023-02-07T00:34:00;-1.50;93.60
26541;DHT22;14206;50.202;10.948;2023-02-07T00:36:31;-1.50;93.10
26541;DHT22;14206;50.202;10.948;2023-02-07T00:39:07;-1.60;92.80
26541;DHT22;14206;50.202;10.948;2023-02-07T00:41:36;-1.60;92.90
26541;DHT22;14206;50.202;10.948;2023-02-07T00:44:04;-1.60;93.00
26541;DHT22;14206;50.202;10.948;2023-02-07T00:46:37;-1.60;92.80
26541;DHT22;14206;50.202;10.948;2023-02-07T00:49:05;-1.70;92.90
26541;DHT22;14206;50.202;10.948;2023-02-07T00:51:32;-1.70;92.90
26541;DHT22;14206;50.202;10.948;2023-02-07T00:53:59;-1.80;93.00
26541;DHT22;14206;50.202;10.948;2023-02-07T00:56:27;-1.90;92.70
26541;DHT22;14206;50.202;10.948;2023-02-07T00:58:56;-1.90;92.30
26541;DHT22;14206;50.202;10.948;2023-02-07T01:01:23;-2.00;92.10
26541;DHT22;14206;50.202;10.948;2023-02-07T01:03:50;-2.00;91.80
26541;DHT22;14206;50.202;10.948;2023-02-07T01:06:17;-2.00;92.00
26541;DHT22;14206;50.202;10.948;2023-02-07T01:08:44;-2.10;92.00
26541;DHT22;14206;50.202;10.948;2023-02-07T01:11:14;-2.10;91.90
26541;DHT22;14206;50.202;10.948;2023-02-07T01:13:42;-2.10;91.90
26541;DHT22;14206;50.202;10.948;2023-02-07T01:16:22;-2.10;92.00
26541;DHT22;14206;50.202;10.948;2023-02-07T01:18:50;-2.10;92.00
26541;DHT22;14206;50.202;10.948;2023-02-07T01:21:19;-2.10;92.00
26541;DHT22;14206;50.202;10.948;2023-02-07T01:23:46;-2.20;91.30
26541;DHT22;14206;50.202;10.948;2023-02-07T01:26:13;-2.20;91.50
26541;DHT22;14206;50.202;10.948;2023-02-07T01:28:40;-2.20;91.30
26541;DHT22;14206;50.202;10.948;2023-02-07T01:31:09;-2.30;91.00
26541;DHT22;14206;50.202;10.948;2023-02-07T01:33:37;-2.30;91.20
26541;DHT22;14206;50.202;10.948;2023-02-07T01:36:09;-2.30;91.50
26541;DHT22;14206;50.202;10.948;2023-02-07T01:38:36;-2.30;91.70
26541;DHT22;14206;50.202;10.948;2023-02-07T01:41:05;-2.30;91.80
26541;DHT22;14206;50.202;10.948;2023-02-07T01:43:32;-2.40;91.90
26541;DHT22;14206;50.202;10.948;2023-02-07T01:45:59;-2.40;92.00
26541;DHT22;14206;50.202;10.948;2023-02-07T01:48:34;-2.40;92.10
26541;DHT22;14206;50.202;10.948;2023-02-07T01:51:05;-2.50;92.20
26541;DHT22;14206;50.202;10.948;2023-02-07T01:53:35;-2.50;92.50
26541;DHT22;14206;50.202;10.948;2023-02-07T01:56:07;-2.60;92.60
26541;DHT22;14206;50.202;10.948;2023-02-07T01:58:37;-2.60;93.10
26541;DHT22;14206;50.202;10.948;2023-02-07T02:01:16;-2.60;93.20
26541;DHT22;14206;50.202;10.948;2023-02-07T02:03:46;-2.70;92.90
26541;DHT22;14206;50.202;10.948;2023-02-07T02:06:16;-2.70;93.20
26541;DHT22;14206;50.202;10.948;2023-02-07T02:08:43;-2.70;93.00
26541;DHT22;14206;50.202;10.948;2023-02-07T02:14:56;-2.80;92.80
26541;DHT22;14206;50.202;10.948;2023-02-07T02:25:35;-2.80;93.40
26541;DHT22;14206;50.202;10.948;2023-02-07T02:37:06;-3.00;93.70
26541;DHT22;14206;50.202;10.948;2023-02-07T02:42:38;-3.10;94.00
26541;DHT22;14206;50.202;10.948;2023-02-07T02:48:23;-3.20;93.70
26541;DHT22;14206;50.202;10.948;2023-02-07T02:50:52;-3.20;93.70
26541;DHT22;14206;50.202;10.948;2023-02-07T02:53:20;-3.30;93.90
26541;DHT22;14206;50.202;10.948;2023-02-07T02:56:19;-3.30;93.90
26541;DHT22;14206;50.202;10.948;2023-02-07T02:59:15;-3.30;94.70
26541;DHT22;14206;50.202;10.948;2023-02-07T03:07:28;-3.50;94.50
26541;DHT22;14206;50.202;10.948;2023-02-07T03:12:39;-3.60;95.00
26541;DHT22;14206;50.202;10.948;2023-02-07T03:20:38;-3.70;95.00
26541;DHT22;14206;50.202;10.948;2023-02-07T03:23:09;-3.80;95.20
26541;DHT22;14206;50.202;10.948;2023-02-07T03:25:38;-3.80;95.80
26541;DHT22;14206;50.202;10.948;2023-02-07T03:28:08;-3.90;95.70
26541;DHT22;14206;50.202;10.948;2023-02-07T03:30:37;-3.90;95.40
26541;DHT22;14206;50.202;10.948;2023-02-07T03:33:09;-4.00;95.50
26541;DHT22;14206;50.202;10.948;2023-02-07T03:35:48;-4.00;95.40
26541;DHT22;14206;50.202;10.948;2023-02-07T03:38:19;-4.10;95.80
26541;DHT22;14206;50.202;10.948;2023-02-07T03:40:49;-4.10;95.80
26541;DHT22;14206;50.202;10.948;2023-02-07T03:43:23;-4.20;95.70
26541;DHT22;14206;50.202;10.948;2023-02-07T03:45:50;-4.20;95.80
26541;DHT22;14206;50.202;10.948;2023-02-07T03:48:17;-4.20;95.90
26541;DHT22;14206;50.202;10.948;2023-02-07T03:50:44;-4.30;96.10
26541;DHT22;14206;50.202;10.948;2023-02-07T03:53:13;-4.30;96.40
26541;DHT22;14206;50.202;10.948;2023-02-07T03:55:40;-4.40;96.20
26541;DHT22;14206;50.202;10.948;2023-02-07T03:58:10;-4.40;96.50
26541;DHT22;14206;50.202;10.948;2023-02-07T04:00:37;-4.50;96.10
26541;DHT22;14206;50.202;10.948;2023-02-07T04:03:04;-4.50;96.40
26541;DHT22;14206;50.202;10.948;2023-02-07T04:05:30;-4.50;96.40
26541;DHT22;14206;50.202;10.948;2023-02-07T04:07:57;-4.60;96.50
26541;DHT22;14206;50.202;10.948;2023-02-07T04:10:24;-4.60;96.60
26541;DHT22;14206;50.202;10.948;2023-02-07T04:12:51;-4.70;96.60
26541;DHT22;14206;50.202;10.948;2023-02-07T04:15:18;-4.70;96.60
26541;DHT22;14206;50.202;10.948;2023-02-07T04:17:45;-4.70;96.60
26541;DHT22;14206;50.202;10.948;2023-02-07T04:20:12;-4.70;96.60
26541;DHT22;14206;50.202;10.948;2023-02-07T04:22:39;-4.70;96.60
26541;DHT22;14206;50.202;10.948;2023-02-07T04:25:06;-4.70;96.60
26541;DHT22;14206;50.202;10.948;2023-02-07T04:27:32;-4.80;96.60
26541;DHT22;14206;50.202;10.948;2023-02-07T04:29:59;-4.80;96.60
26541;DHT22;14206;50.202;10.948;2023-02-07T04:32:26;-4.80;96.60
26541;DHT22;14206;50.202;10.948;2023-02-07T04:34:53;-4.80;96.60
26541;DHT22;14206;50.202;10.948;2023-02-07T04:37:20;-4.80;96.60
26541;DHT22;14206;50.202;10.948;2023-02-07T04:39:47;-4.80;96.60
26541;DHT22;14206;50.202;10.948;2023-02-07T04:42:14;-4.80;96.60
26541;DHT22;14206;50.202;10.948;2023-02-07T04:44:41;-4.90;96.60
26541;DHT22;14206;50.202;10.948;2023-02-07T04:47:07;-4.90;96.60
26541;DHT22;14206;50.202;10.948;2023-02-07T04:49:34;-4.90;96.60
26541;DHT22;14206;50.202;10.948;2023-02-07T04:52:01;-4.90;96.60
26541;DHT22;14206;50.202;10.948;2023-02-07T04:54:28;-4.90;96.60
26541;DHT22;14206;50.202;10.948;2023-02-07T04:56:55;-5.00;96.60
26541;DHT22;14206;50.202;10.948;2023-02-07T04:59:22;-5.00;96.60
26541;DHT22;14206;50.202;10.948;2023-02-07T05:01:49;-5.00;96.60
26541;DHT22;14206;50.202;10.948;2023-02-07T05:04:16;-5.00;96.60
26541;DHT22;14206;50.202;10.948;2023-02-07T05:06:42;-5.00;96.60
26541;DHT22;14206;50.202;10.948;2023-02-07T05:09:09;-5.00;96.60
26541;DHT22;14206;50.202;10.948;2023-02-07T05:11:36;-5.00;96.60
26541;DHT22;14206;50.202;10.948;2023-02-07T05:14:03;-5.00;96.60
26541;DHT22;14206;50.202;10.948;2023-02-07T05:16:30;-5.00;96.60
26541;DHT22;14206;50.202;10.948;2023-02-07T05:18:57;-5.10;96.60
26541;DHT22;14206;50.202;10.948;2023-02-07T05:21:23;-5.10;96.60
26541;DHT22;14206;50.202;10.948;2023-02-07T05:23:50;-5.10;96.60
26541;DHT22;14206;50.202;10.948;2023-02-07T05:26:17;-5.10;96.60
26541;DHT22;14206;50.202;10.948;2023-02-07T05:28:44;-5.20;96.60
26541;DHT22;14206;50.202;10.948;2023-02-07T05:31:11;-5.20;96.60
26541;DHT22;14206;50.202;10.948;2023-02-07T05:33:38;-5.20;96.60
26541;DHT22;14206;50.202;10.948;2023-02-07T05:36:05;-5.20;96.60
26541;DHT22;14206;50.202;10.948;2023-02-07T05:38:32;-5.20;96.60
26541;DHT22;14206;50.202;10.948;2023-02-07T05:40:59;-5.20;96.60
26541;DHT22;14206;50.202;10.948;2023-02-07T05:43:29;-5.10;96.60
26541;DHT22;14206;50.202;10.948;2023-02-07T05:45:56;-5.20;96.60
26541;DHT22;14206;50.202;10.948;2023-02-07T05:48:23;-5.20;96.60
26541;DHT22;14206;50.202;10.948;2023-02-07T05:50:50;-5.20;96.60
26541;DHT22;14206;50.202;10.948;2023-02-07T05:53:17;-5.20;96.60
26541;DHT22;14206;50.202;10.948;2023-02-07T05:55:44;-5.20;96.60
26541;DHT22;14206;50.202;10.948;2023-02-07T05:58:11;-5.30;96.60
26541;DHT22;14206;50.202;10.948;2023-02-07T06:00:37;-5.30;96.60
26541;DHT22;14206;50.202;10.948;2023-02-07T06:03:04;-5.30;96.60
26541;DHT22;14206;50.202;10.948;2023-02-07T06:05:35;-5.30;96.60
26541;DHT22;14206;50.202;10.948;2023-02-07T06:08:03;-5.30;96.60
26541;DHT22;14206;50.202;10.948;2023-02-07T06:10:30;-5.30;96.60
26541;DHT22;14206;50.202;10.948;2023-02-07T06:12:56;-5.30;96.60
26541;DHT22;14206;50.202;10.948;2023-02-07T06:15:23;-5.40;96.60
26541;DHT22;14206;50.202;10.948;2023-02-07T06:17:50;-5.40;96.60
26541;DHT22;14206;50.202;10.948;2023-02-07T06:20:17;-5.50;96.60
26541;DHT22;14206;50.202;10.948;2023-02-07T06:22:44;-5.50;96.60
26541;DHT22;14206;50.202;10.948;2023-02-07T06:25:11;-5.50;96.60
26541;DHT22;14206;50.202;10.948;2023-02-07T06:27:39;-5.50;96.60
26541;DHT22;14206;50.202;10.948;2023-02-07T06:30:07;-5.50;96.60
26541;DHT22;14206;50.202;10.948;2023-02-07T06:32:34;-5.50;96.60
26541;DHT22;14206;50.202;10.948;2023-02-07T06:35:01;-5.50;96.60
26541;DHT22;14206;50.202;10.948;2023-02-07T06:37:28;-5.50;96.60
26541;DHT22;14206;50.202;10.948;2023-02-07T06:39:55;-5.50;96.60
26541;DHT22;14206;50.202;10.948;2023-02-07T06:42:22;-5.50;96.60
26541;DHT22;14206;50.202;10.948;2023-02-07T06:44:50;-5.50;96.60
26541;DHT22;14206;50.202;10.948;2023-02-07T06:47:16;-5.50;96.60
26541;DHT22;14206;50.202;10.948;2023-02-07T06:49:46;-5.50;96.60
26541;DHT22;14206;50.202;10.948;2023-02-07T06:52:13;-5.50;96.60
26541;DHT22;14206;50.202;10.948;2023-02-07T06:54:40;-5.50;96.60
26541;DHT22;14206;50.202;10.948;2023-02-07T06:57:07;-5.50;96.60
26541;DHT22;14206;50.202;10.948;2023-02-07T06:59:34;-5.50;96.60
26541;DHT22;14206;50.202;10.948;2023-02-07T07:02:01;-5.50;96.60
26541;DHT22;14206;50.202;10.948;2023-02-07T07:04:30;-5.40;96.60
26541;DHT22;14206;50.202;10.948;2023-02-07T07:06:57;-5.30;96.60
26541;DHT22;14206;50.202;10.948;2023-02-07T07:09:24;-5.30;96.60
26541;DHT22;14206;50.202;10.948;2023-02-07T07:11:50;-5.20;96.60
26541;DHT22;14206;50.202;10.948;2023-02-07T07:14:17;-5.20;96.60
26541;DHT22;14206;50.202;10.948;2023-02-07T07:16:44;-5.10;96.60
26541;DHT22;14206;50.202;10.948;2023-02-07T07:19:11;-5.00;96.60
26541;DHT22;14206;50.202;10.948;2023-02-07T07:21:39;-4.90;96.60
26541;DHT22;14206;50.202;10.948;2023-02-07T07:24:06;-4.80;96.60
26541;DHT22;14206;50.202;10.948;2023-02-07T07:26:33;-4.70;96.60
26541;DHT22;14206;50.202;10.948;2023-02-07T07:29:16;-4.50;96.60
26541;DHT22;14206;50.202;10.948;2023-02-07T07:31:43;-4.30;96.60
26541;DHT22;14206;50.202;10.948;2023-02-07T07:34:11;-4.10;96.00
26541;DHT22;14206;50.202;10.948;2023-02-07T07:36:38;-3.80;95.50
26541;DHT22;14206;50.202;10.948;2023-02-07T07:39:05;-3.60;95.00
26541;DHT22;14206;50.202;10.948;2023-02-07T07:41:34;-3.30;94.50
26541;DHT22;14206;50.202;10.948;2023-02-07T07:44:01;-3.00;93.60
26541;DHT22;14206;50.202;10.948;2023-02-07T07:46:28;-2.70;92.60
26541;DHT22;14206;50.202;10.948;2023-02-07T07:48:55;-2.40;92.70
26541;DHT22;14206;50.202;10.948;2023-02-07T07:51:22;-2.00;92.00
26541;DHT22;14206;50.202;10.948;2023-02-07T07:53:49;-1.60;91.10
26541;DHT22;14206;50.202;10.948;2023-02-07T07:56:16;-1.20;89.60
26541;DHT22;14206;50.202;10.948;2023-02-07T07:58:42;-0.60;88.30
26541;DHT22;14206;50.202;10.948;2023-02-07T08:01:09;-0.10;87.00
26541;DHT22;14206;50.202;10.948;2023-02-07T08:03:36;0.40;85.20
26541;DHT22;14206;50.202;10.948;2023-02-07T08:06:04;0.90;84.30
26541;DHT22;14206;50.202;10.948;2023-02-07T08:08:31;1.40;81.70
26541;DHT22;14206;50.202;10.948;2023-02-07T08:11:07;1.70;78.80
26541;DHT22;14206;50.202;10.948;2023-02-07T08:13:37;2.00;78.90
26541;DHT22;14206;50.202;10.948;2023-02-07T08:16:05;2.40;76.80
26541;DHT22;14206;50.202;10.948;2023-02-07T08:18:36;2.70;77.70
26541;DHT22;14206;50.202;10.948;2023-02-07T08:21:03;3.30;76.90
26541;DHT22;14206;50.202;10.948;2023-02-07T08:23:32;3.90;75.10
26541;DHT22;14206;50.202;10.948;2023-02-07T08:25:59;4.50;74.80
26541;DHT22;14206;50.202;10.948;2023-02-07T08:28:26;5.20;71.10
26541;DHT22;14206;50.202;10.948;2023-02-07T08:30:53;5.40;69.50
26541;DHT22;14206;50.202;10.948;2023-02-07T08:33:20;5.50;68.50
26541;DHT22;14206;50.202;10.948;2023-02-07T08:35:48;5.70;68.40
26541;DHT22;14206;50.202;10.948;2023-02-07T08:38:15;5.80;67.70
26541;DHT22;14206;50.202;10.948;2023-02-07T08:40:42;5.60;66.40
26541;DHT22;14206;50.202;10.948;2023-02-07T08:43:10;5.50;66.40
26541;DHT22;14206;50.202;10.948;2023-02-07T08:45:39;5.30;66.30
26541;DHT22;14206;50.202;10.948;2023-02-07T08:48:06;5.10;67.50
26541;DHT22;14206;50.202;10.948;2023-02-07T08:50:33;5.00;67.50
26541;DHT22;14206;50.202;10.948;2023-02-07T08:53:00;4.90;67.70
26541;DHT22;14206;50.202;10.948;2023-02-07T08:55:28;4.70;67.30
26541;DHT22;14206;50.202;10.948;2023-02-07T08:57:56;4.80;68.60
26541;DHT22;14206;50.202;10.948;2023-02-07T09:00:23;5.00;68.70
26541;DHT22;14206;50.202;10.948;2023-02-07T09:02:50;5.20;68.50
26541;DHT22;14206;50.202;10.948;2023-02-07T09:05:17;5.30;67.70
26541;DHT22;14206;50.202;10.948;2023-02-07T09:07:50;5.30;66.30
26541;DHT22;14206;50.202;10.948;2023-02-07T09:10:24;5.10;67.40
26541;DHT22;14206;50.202;10.948;2023-02-07T09:12:52;4.90;67.10
26541;DHT22;14206;50.202;10.948;2023-02-07T09:15:18;4.70;67.20
26541;DHT22;14206;50.202;10.948;2023-02-07T09:17:45;4.40;68.80
26541;DHT22;14206;50.202;10.948;2023-02-07T09:20:18;4.20;68.80
26541;DHT22;14206;50.202;10.948;2023-02-07T09:22:46;4.00;69.70
26541;DHT22;14206;50.202;10.948;2023-02-07T09:25:33;3.80;69.50
26541;DHT22;14206;50.202;10.948;2023-02-07T09:28:02;3.60;70.40
26541;DHT22;14206;50.202;10.948;2023-02-07T09:30:29;3.50;70.10
26541;DHT22;14206;50.202;10.948;2023-02-07T09:32:56;3.40;71.10
26541;DHT22;14206;50.202;10.948;2023-02-07T09:35:24;3.30;71.60
26541;DHT22;14206;50.202;10.948;2023-02-07T09:37:54;3.30;71.50
26541;DHT22;14206;50.202;10.948;2023-02-07T09:40:23;3.30;71.60
26541;DHT22;14206;50.202;10.948;2023-02-07T09:45:47;3.50;71.60
26541;DHT22;14206;50.202;10.948;2023-02-07T09:48:20;3.70;70.70
26541;DHT22;14206;50.202;10.948;2023-02-07T09:50:52;3.80;70.20
26541;DHT22;14206;50.202;10.948;2023-02-07T09:56:22;4.00;69.20
26541;DHT22;14206;50.202;10.948;2023-02-07T10:01:36;4.60;68.30
26541;DHT22;14206;50.202;10.948;2023-02-07T10:06:52;6.80;66.20
26541;DHT22;14206;50.202;10.948;2023-02-07T10:09:30;8.00;62.90
26541;DHT22;14206;50.202;10.948;2023-02-07T10:23:00;13.10;52.60
26541;DHT22;14206;50.202;10.948;2023-02-07T10:26:14;13.80;50.60
26541;DHT22;14206;50.202;10.948;2023-02-07T10:28:57;14.60;48.90
26541;DHT22;14206;50.202;10.948;2023-02-07T10:31:31;15.20;49.10
26541;DHT22;14206;50.202;10.948;2023-02-07T10:34:14;15.80;47.50
26541;DHT22;14206;50.202;10.948;2023-02-07T10:36:46;16.40;46.10
26541;DHT22;14206;50.202;10.948;2023-02-07T10:39:30;16.90;45.20
26541;DHT22;14206;50.202;10.948;2023-02-07T10:41:58;17.10;41.60
26541;DHT22;14206;50.202;10.948;2023-02-07T10:44:25;17.20;43.00
26541;DHT22;14206;50.202;10.948;2023-02-07T10:47:02;17.70;43.20
26541;DHT22;14206;50.202;10.948;2023-02-07T10:49:36;17.80;42.70
26541;DHT22;14206;50.202;10.948;2023-02-07T10:52:28;17.10;41.80
26541;DHT22;14206;50.202;10.948;2023-02-07T10:54:59;15.70;42.00
26541;DHT22;14206;50.202;10.948;2023-02-07T10:57:28;14.60;43.90
26541;DHT22;14206;50.202;10.948;2023-02-07T11:05:03;11.50;48.70
26541;DHT22;14206;50.202;10.948;2023-02-07T11:07:31;10.80;48.70
26541;DHT22;14206;50.202;10.948;2023-02-07T11:12:46;9.60;50.70
26541;DHT22;14206;50.202;10.948;2023-02-07T11:15:16;8.90;50.10
26541;DHT22;14206;50.202;10.948;2023-02-07T11:18:05;8.30;52.80
26541;DHT22;14206;50.202;10.948;2023-02-07T11:20:39;7.90;53.70
26541;DHT22;14206;50.202;10.948;2023-02-07T11:23:15;7.60;55.90
26541;DHT22;14206;50.202;10.948;2023-02-07T11:25:44;7.20;55.00
26541;DHT22;14206;50.202;10.948;2023-02-07T11:28:20;7.00;55.70
26541;DHT22;14206;50.202;10.948;2023-02-07T11:31:00;6.80;56.30
26541;DHT22;14206;50.202;10.948;2023-02-07T11:33:32;6.60;57.30
26541;DHT22;14206;50.202;10.948;2023-02-07T11:36:21;6.40;57.80
26541;DHT22;14206;50.202;10.948;2023-02-07T11:38:59;6.20;59.00
26541;DHT22;14206;50.202;10.948;2023-02-07T11:41:29;6.10;58.60
26541;DHT22;14206;50.202;10.948;2023-02-07T11:44:02;6.00;58.70
26541;DHT22;14206;50.202;10.948;2023-02-07T11:46:36;5.90;59.10
26541;DHT22;14206;50.202;10.948;2023-02-07T11:49:25;5.80;59.20
26541;DHT22;14206;50.202;10.948;2023-02-07T11:51:55;5.70;59.70
26541;DHT22;14206;50.202;10.948;2023-02-07T11:54:28;5.60;59.30
26541;DHT22;14206;50.202;10.948;2023-02-07T11:57:05;5.60;59.50
26541;DHT22;14206;50.202;10.948;2023-02-07T11:59:33;5.50;60.00
26541;DHT22;14206;50.202;10.948;2023-02-07T12:02:22;5.50;60.20
26541;DHT22;14206;50.202;10.948;2023-02-07T12:04:51;5.30;59.70
26541;DHT22;14206;50.202;10.948;2023-02-07T12:10:00;5.00;59.30
26541;DHT22;14206;50.202;10.948;2023-02-07T12:12:46;5.00;58.90
26541;DHT22;14206;50.202;10.948;2023-02-07T12:15:18;4.80;58.80
26541;DHT22;14206;50.202;10.948;2023-02-07T12:21:00;4.70;61.50
26541;DHT22;14206;50.202;10.948;2023-02-07T12:23:37;4.80;60.90
26541;DHT22;14206;50.202;10.948;2023-02-07T12:35:13;4.80;61.50
26541;DHT22;14206;50.202;10.948;2023-02-07T12:37:55;4.80;61.50
26541;DHT22;14206;50.202;10.948;2023-02-07T12:40:36;4.80;60.70
26541;DHT22;14206;50.202;10.948;2023-02-07T12:43:24;4.80;59.80
26541;DHT22;14206;50.202;10.948;2023-02-07T12:51:44;4.70;60.00
26541;DHT22;14206;50.202;10.948;2023-02-07T12:54:29;4.60;59.40
26541;DHT22;14206;50.202;10.948;2023-02-07T13:02:32;4.50;58.20
26541;DHT22;14206;50.202;10.948;2023-02-07T13:10:48;4.60;59.30
26541;DHT22;14206;50.202;10.948;2023-02-07T13:13:22;4.60;59.00
26541;DHT22;14206;50.202;10.948;2023-02-07T13:15:57;4.60;58.40
26541;DHT22;14206;50.202;10.948;2023-02-07T13:21:25;4.60;57.60
26541;DHT22;14206;50.202;10.948;2023-02-07T13:24:01;4.60;56.80
26541;DHT22;14206;50.202;10.948;2023-02-07T13:26:30;4.60;58.50
26541;DHT22;14206;50.202;10.948;2023-02-07T13:29:05;4.60;56.80
26541;DHT22;14206;50.202;10.948;2023-02-07T13:31:43;4.60;55.20
26541;DHT22;14206;50.202;10.948;2023-02-07T13:34:18;4.50;55.80
26541;DHT22;14206;50.202;10.948;2023-02-07T13:36:47;4.50;56.00
26541;DHT22;14206;50.202;10.948;2023-02-07T13:39:47;4.50;55.60
26541;DHT22;14206;50.202;10.948;2023-02-07T13:48:50;4.60;55.50
26541;DHT22;14206;50.202;10.948;2023-02-07T13:54:29;4.50;53.10
26541;DHT22;14206;50.202;10.948;2023-02-07T13:57:01;4.70;53.40
26541;DHT22;14206;50.202;10.948;2023-02-07T14:02:49;6.20;51.80
26541;DHT22;14206;50.202;10.948;2023-02-07T14:05:20;6.90;49.40
26541;DHT22;14206;50.202;10.948;2023-02-07T14:08:00;7.40;47.40
26541;DHT22;14206;50.202;10.948;2023-02-07T14:10:46;7.70;47.00
26541;DHT22;14206;50.202;10.948;2023-02-07T14:13:26;8.10;48.30
26541;DHT22;14206;50.202;10.948;2023-02-07T14:15:59;8.40;48.60
26541;DHT22;14206;50.202;10.948;2023-02-07T14:18:46;8.50;47.70
26541;DHT22;14206;50.202;10.948;2023-02-07T14:31:58;9.20;46.40
26541;DHT22;14206;50.202;10.948;2023-02-07T14:34:59;8.90;46.50
26541;DHT22;14206;50.202;10.948;2023-02-07T14:37:48;8.30;45.90
26541;DHT22;14206;50.202;10.948;2023-02-07T14:46:12;6.70;48.20
26541;DHT22;14206;50.202;10.948;2023-02-07T14:48:47;6.40;50.30
26541;DHT22;14206;50.202;10.948;2023-02-07T14:51:29;6.20;54.70
26541;DHT22;14206;50.202;10.948;2023-02-07T14:56:37;5.60;54.40
26541;DHT22;14206;50.202;10.948;2023-02-07T14:59:10;5.40;53.70
26541;DHT22;14206;50.202;10.948;2023-02-07T15:01:39;5.20;57.80
26541;DHT22;14206;50.202;10.948;2023-02-07T15:04:08;4.90;56.00
26541;DHT22;14206;50.202;10.948;2023-02-07T15:06:48;4.70;56.50
26541;DHT22;14206;50.202;10.948;2023-02-07T15:09:26;4.60;57.10
26541;DHT22;14206;50.202;10.948;2023-02-07T15:12:02;4.50;59.80
26541;DHT22;14206;50.202;10.948;2023-02-07T15:14:41;4.50;60.10
26541;DHT22;14206;50.202;10.948;2023-02-07T15:17:09;4.50;61.80
26541;DHT22;14206;50.202;10.948;2023-02-07T15:19:38;4.40;63.70
26541;DHT22;14206;50.202;10.948;2023-02-07T15:22:06;4.40;63.50
26541;DHT22;14206;50.202;10.948;2023-02-07T15:24:51;4.30;64.10
26541;DHT22;14206;50.202;10.948;2023-02-07T15:27:23;4.20;62.10
26541;DHT22;14206;50.202;10.948;2023-02-07T15:30:02;4.10;62.20
26541;DHT22;14206;50.202;10.948;2023-02-07T15:32:32;4.00;63.60
26541;DHT22;14206;50.202;10.948;2023-02-07T15:35:28;3.90;65.40
26541;DHT22;14206;50.202;10.948;2023-02-07T15:38:23;3.80;65.20
26541;DHT22;14206;50.202;10.948;2023-02-07T15:40:53;3.60;67.20
26541;DHT22;14206;50.202;10.948;2023-02-07T15:46:10;3.40;65.60
26541;DHT22;14206;50.202;10.948;2023-02-07T15:48:49;3.20;66.50
26541;DHT22;14206;50.202;10.948;2023-02-07T15:51:20;3.10;68.50
26541;DHT22;14206;50.202;10.948;2023-02-07T15:53:54;3.00;65.70
26541;DHT22;14206;50.202;10.948;2023-02-07T15:56:21;2.80;67.00
26541;DHT22;14206;50.202;10.948;2023-02-07T15:58:49;2.70;67.00
26541;DHT22;14206;50.202;10.948;2023-02-07T16:01:23;2.60;68.20
26541;DHT22;14206;50.202;10.948;2023-02-07T16:03:54;2.40;67.80
26541;DHT22;14206;50.202;10.948;2023-02-07T16:06:23;2.30;67.80
26541;DHT22;14206;50.202;10.948;2023-02-07T16:08:55;2.20;67.90
26541;DHT22;14206;50.202;10.948;2023-02-07T16:16:45;1.80;68.50
26541;DHT22;14206;50.202;10.948;2023-02-07T16:19:25;1.70;68.40
26541;DHT22;14206;50.202;10.948;2023-02-07T16:22:07;1.50;68.30
26541;DHT22;14206;50.202;10.948;2023-02-07T16:24:39;1.50;69.70
26541;DHT22;14206;50.202;10.948;2023-02-07T16:27:10;1.30;69.40
26541;DHT22;14206;50.202;10.948;2023-02-07T16:29:40;1.20;70.80
26541;DHT22;14206;50.202;10.948;2023-02-07T16:32:10;1.10;70.50
26541;DHT22;14206;50.202;10.948;2023-02-07T16:34:38;1.00;71.70
26541;DHT22;14206;50.202;10.948;2023-02-07T16:37:23;0.90;71.70
26541;DHT22;14206;50.202;10.948;2023-02-07T16:39:50;0.80;71.60
26541;DHT22;14206;50.202;10.948;2023-02-07T16:42:17;0.70;70.80
26541;DHT22;14206;50.202;10.948;2023-02-07T16:44:45;0.60;70.30
26541;DHT22;14206;50.202;10.948;2023-02-07T16:47:13;0.60;71.50
26541;DHT22;14206;50.202;10.948;2023-02-07T16:49:43;0.50;71.20
26541;DHT22;14206;50.202;10.948;2023-02-07T16:52:13;0.40;71.30
26541;DHT22;14206;50.202;10.948;2023-02-07T16:54:40;0.30;71.10
26541;DHT22;14206;50.202;10.948;2023-02-07T16:57:09;0.20;72.70
26541;DHT22;14206;50.202;10.948;2023-02-07T16:59:37;0.10;72.20
26541;DHT22;14206;50.202;10.948;2023-02-07T17:02:11;0.10;73.90
26541;DHT22;14206;50.202;10.948;2023-02-07T17:04:39;0.00;75.50
26541;DHT22;14206;50.202;10.948;2023-02-07T17:07:09;-0.10;76.30
26541;DHT22;14206;50.202;10.948;2023-02-07T17:09:36;-0.20;76.70
26541;DHT22;14206;50.202;10.948;2023-02-07T17:12:03;-0.20;77.30
26541;DHT22;14206;50.202;10.948;2023-02-07T17:14:30;-0.30;77.40
26541;DHT22;14206;50.202;10.948;2023-02-07T17:16:57;-0.30;77.60
26541;DHT22;14206;50.202;10.948;2023-02-07T17:19:27;-0.40;77.60
26541;DHT22;14206;50.202;10.948;2023-02-07T17:21:54;-0.50;77.10
26541;DHT22;14206;50.202;10.948;2023-02-07T17:24:22;-0.50;76.40
26541;DHT22;14206;50.202;10.948;2023-02-07T17:26:51;-0.60;78.20
26541;DHT22;14206;50.202;10.948;2023-02-07T17:29:19;-0.60;78.20
26541;DHT22;14206;50.202;10.948;2023-02-07T17:31:46;-0.60;78.30
26541;DHT22;14206;50.202;10.948;2023-02-07T17:34:14;-0.70;77.90
26541;DHT22;14206;50.202;10.948;2023-02-07T17:36:47;-0.70;79.40
26541;DHT22;14206;50.202;10.948;2023-02-07T17:39:16;-0.80;79.50
26541;DHT22;14206;50.202;10.948;2023-02-07T17:41:43;-0.80;80.10
26541;DHT22;14206;50.202;10.948;2023-02-07T17:44:10;-0.90;79.80
26541;DHT22;14206;50.202;10.948;2023-02-07T17:46:37;-1.00;80.10
26541;DHT22;14206;50.202;10.948;2023-02-07T17:49:08;-1.00;79.50
26541;DHT22;14206;50.202;10.948;2023-02-07T17:51:38;-1.00;79.50
26541;DHT22;14206;50.202;10.948;2023-02-07T17:54:04;-1.10;79.60
26541;DHT22;14206;50.202;10.948;2023-02-07T17:56:32;-1.20;79.70
26541;DHT22;14206;50.202;10.948;2023-02-07T17:59:02;-1.20;79.80
26541;DHT22;14206;50.202;10.948;2023-02-07T18:01:30;-1.30;80.50
26541;DHT22;14206;50.202;10.948;2023-02-07T18:03:57;-1.30;81.10
26541;DHT22;14206;50.202;10.948;2023-02-07T18:06:27;-1.40;81.00
26541;DHT22;14206;50.202;10.948;2023-02-07T18:08:55;-1.40;81.70
26541;DHT22;14206;50.202;10.948;2023-02-07T18:11:25;-1.40;82.70